Impacts METAR Board
IDs:

KTPA - Tampa Intl Arpt, FL, US

Updated at: 0700 UTC 11 Dec 2018
Potential Impact None Slight Moderate High
Time 10/19Z 10/20Z 10/21Z 10/22Z 10/23Z 11/00Z 11/01Z 11/02Z 11/03Z 11/04Z 11/05Z 11/06Z 11/07Z
Temp61 60 58 55 54 53 51 51 51 50 50 49 50
Dewpt46 46 47 46 46 45 43 43 43 42 42 42 42
Altim30.09 30.10 30.11 30.12 30.14 30.16 30.18 30.18 30.20 30.20 30.20 30.19 30.21
VIS10 10 10 10 10 10 10 10 10 10 10 10 10
CIG40 30 31 38 39 37 -- -- 60 60 55 50 34
CoverBKNBKNOVCOVCOVCOVCFEWFEWOVCOVCBKNBKNOVC
FltCatVFRMVFRVFRVFRVFRVFRVFRVFRVFRVFRVFRVFRVFR
WX--------------------------
WDir30033031033035035010604040604030
WSpd11 8 10 9 10 11 8 4 6 4 4 5 4
WGst20 17 -- -- -- -- -- -- -- -- -- -- --
Raw hourly METARs
KTPA 101853Z 30011G20KT 10SM FEW030 BKN040 BKN055 16/08 A3009 RMK AO2 SLP189 T01610078
KTPA 101953Z 33008G17KT 10SM BKN030 BKN050 16/08 A3010 RMK AO2 SLP191 T01560078
KTPA 102053Z 31010KT 10SM OVC031 14/08 A3011 RMK AO2 SLP194 T01440083 53000
KTPA 102153Z 33009KT 10SM OVC038 13/08 A3012 RMK AO2 SLP200 T01280078
KTPA 102253Z 35010KT 10SM FEW022 BKN039 OVC320 12/08 A3014 RMK AO2 SLP205 T01220078
KTPA 102353Z 35011KT 10SM OVC037 12/07 A3016 RMK AO2 SLP211 T01170072 10167 20117 53017
KTPA 110053Z 01008KT 10SM FEW045 11/06 A3018 RMK AO2 SLP218 T01060061
KTPA 110153Z 06004KT 10SM FEW032 FEW055 11/06 A3018 RMK AO2 SLP221 T01060061
KTPA 110253Z 04006KT 10SM OVC060 11/06 A3020 RMK AO2 SLP226 T01060061 51014
KTPA 110353Z 04004KT 10SM FEW037 OVC060 10/06 A3020 RMK AO2 SLP226 T01000056
KTPA 110453Z 06004KT 10SM SCT037 BKN055 10/06 A3020 RMK AO2 SLP225 T01000056 401830100
KTPA 110553Z 04005KT 10SM SCT032 BKN050 09/06 A3019 RMK AO2 SLP224 T00940056 10117 20094 58002
KTPA 110653Z 03004KT 10SM BKN034 OVC048 10/06 A3021 RMK AO2 SLP228 T01000056



Page loaded:  07:33 UTC  |   11:33 PM Pacific  |   12:33 AM Mountain  |   01:33 AM Central  |   02:33 AM Eastern

 

ADVISORIES

FORECASTS

FORECASTS

OBSERVATIONS

USER TOOLS

ABOUT US